sensor_id;sensor_type;location;lat;lon;timestamp;P1;durP1;ratioP1;P2;durP2;ratioP2
18677;SDS011;9469;51.114;13.914;2022-09-09T00:04:51;1.53;;;1.20;;
18677;SDS011;9469;51.114;13.914;2022-09-09T00:10:06;2.67;;;1.60;;
18677;SDS011;9469;51.114;13.914;2022-09-09T00:15:20;2.90;;;1.40;;
18677;SDS011;9469;51.114;13.914;2022-09-09T00:20:36;2.03;;;1.33;;
18677;SDS011;9469;51.114;13.914;2022-09-09T00:25:49;2.20;;;1.37;;
18677;SDS011;9469;51.114;13.914;2022-09-09T00:31:08;2.53;;;1.50;;
18677;SDS011;9469;51.114;13.914;2022-09-09T00:36:20;5.20;;;1.40;;
18677;SDS011;9469;51.114;13.914;2022-09-09T00:41:30;4.63;;;1.60;;
18677;SDS011;9469;51.114;13.914;2022-09-09T00:52:20;3.47;;;1.40;;
18677;SDS011;9469;51.114;13.914;2022-09-09T00:57:34;2.07;;;1.37;;
18677;SDS011;9469;51.114;13.914;2022-09-09T01:02:42;3.23;;;1.23;;
18677;SDS011;9469;51.114;13.914;2022-09-09T01:08:00;3.13;;;1.17;;
18677;SDS011;9469;51.114;13.914;2022-09-09T01:13:09;3.60;;;1.70;;
18677;SDS011;9469;51.114;13.914;2022-09-09T01:18:21;6.07;;;1.90;;
18677;SDS011;9469;51.114;13.914;2022-09-09T01:29:22;3.13;;;1.37;;
18677;SDS011;9469;51.114;13.914;2022-09-09T01:34:28;1.70;;;1.10;;
18677;SDS011;9469;51.114;13.914;2022-09-09T01:39:36;5.30;;;1.30;;
18677;SDS011;9469;51.114;13.914;2022-09-09T01:44:48;1.73;;;1.00;;
18677;SDS011;9469;51.114;13.914;2022-09-09T01:49:54;3.07;;;1.20;;
18677;SDS011;9469;51.114;13.914;2022-09-09T01:55:01;4.60;;;1.30;;
18677;SDS011;9469;51.114;13.914;2022-09-09T02:00:14;3.00;;;1.50;;
18677;SDS011;9469;51.114;13.914;2022-09-09T02:05:27;5.03;;;1.33;;
18677;SDS011;9469;51.114;13.914;2022-09-09T02:10:56;1.30;;;1.20;;
18677;SDS011;9469;51.114;13.914;2022-09-09T02:16:18;1.40;;;1.20;;
18677;SDS011;9469;51.114;13.914;2022-09-09T02:21:29;3.67;;;1.23;;
18677;SDS011;9469;51.114;13.914;2022-09-09T02:26:37;2.70;;;1.20;;
18677;SDS011;9469;51.114;13.914;2022-09-09T02:31:50;5.17;;;1.40;;
18677;SDS011;9469;51.114;13.914;2022-09-09T02:37:03;5.03;;;1.70;;
18677;SDS011;9469;51.114;13.914;2022-09-09T02:42:11;3.47;;;1.43;;
18677;SDS011;9469;51.114;13.914;2022-09-09T02:47:25;1.93;;;1.40;;
18677;SDS011;9469;51.114;13.914;2022-09-09T02:52:42;2.97;;;1.40;;
18677;SDS011;9469;51.114;13.914;2022-09-09T02:57:55;1.97;;;1.50;;
18677;SDS011;9469;51.114;13.914;2022-09-09T03:03:05;2.33;;;1.27;;
18677;SDS011;9469;51.114;13.914;2022-09-09T03:08:12;2.10;;;1.50;;
18677;SDS011;9469;51.114;13.914;2022-09-09T03:13:19;2.90;;;1.50;;
18677;SDS011;9469;51.114;13.914;2022-09-09T03:18:27;5.73;;;1.60;;
18677;SDS011;9469;51.114;13.914;2022-09-09T03:23:32;3.83;;;1.47;;
18677;SDS011;9469;51.114;13.914;2022-09-09T03:28:38;3.03;;;1.80;;
18677;SDS011;9469;51.114;13.914;2022-09-09T03:33:46;5.03;;;1.60;;
18677;SDS011;9469;51.114;13.914;2022-09-09T03:38:53;2.77;;;1.57;;
18677;SDS011;9469;51.114;13.914;2022-09-09T03:44:01;4.07;;;1.97;;
18677;SDS011;9469;51.114;13.914;2022-09-09T03:49:15;1.50;;;1.40;;
18677;SDS011;9469;51.114;13.914;2022-09-09T03:54:22;8.07;;;1.63;;
18677;SDS011;9469;51.114;13.914;2022-09-09T03:59:27;3.50;;;2.50;;
18677;SDS011;9469;51.114;13.914;2022-09-09T04:04:38;8.00;;;2.20;;
18677;SDS011;9469;51.114;13.914;2022-09-09T04:09:43;5.30;;;1.37;;
18677;SDS011;9469;51.114;13.914;2022-09-09T04:14:49;2.90;;;1.90;;
18677;SDS011;9469;51.114;13.914;2022-09-09T04:19:56;6.00;;;2.10;;
18677;SDS011;9469;51.114;13.914;2022-09-09T04:25:04;2.50;;;2.10;;
18677;SDS011;9469;51.114;13.914;2022-09-09T04:30:10;3.63;;;2.10;;
18677;SDS011;9469;51.114;13.914;2022-09-09T04:35:19;5.47;;;2.00;;
18677;SDS011;9469;51.114;13.914;2022-09-09T04:40:25;3.70;;;2.07;;
18677;SDS011;9469;51.114;13.914;2022-09-09T04:45:32;2.00;;;1.70;;
18677;SDS011;9469;51.114;13.914;2022-09-09T04:50:41;16.37;;;2.50;;
18677;SDS011;9469;51.114;13.914;2022-09-09T04:55:46;4.03;;;1.60;;
18677;SDS011;9469;51.114;13.914;2022-09-09T05:00:53;3.27;;;1.87;;
18677;SDS011;9469;51.114;13.914;2022-09-09T05:06:05;3.80;;;1.83;;
18677;SDS011;9469;51.114;13.914;2022-09-09T05:11:16;2.70;;;1.77;;
18677;SDS011;9469;51.114;13.914;2022-09-09T05:16:22;3.40;;;1.33;;
18677;SDS011;9469;51.114;13.914;2022-09-09T05:21:31;3.07;;;1.20;;
18677;SDS011;9469;51.114;13.914;2022-09-09T05:26:36;2.80;;;1.23;;
18677;SDS011;9469;51.114;13.914;2022-09-09T05:31:42;3.93;;;1.07;;
18677;SDS011;9469;51.114;13.914;2022-09-09T05:36:52;4.13;;;1.70;;
18677;SDS011;9469;51.114;13.914;2022-09-09T05:41:58;1.87;;;1.20;;
18677;SDS011;9469;51.114;13.914;2022-09-09T05:47:06;3.47;;;1.80;;
18677;SDS011;9469;51.114;13.914;2022-09-09T05:52:14;2.40;;;1.33;;
18677;SDS011;9469;51.114;13.914;2022-09-09T05:57:19;7.63;;;1.30;;
18677;SDS011;9469;51.114;13.914;2022-09-09T06:02:25;3.70;;;1.60;;
18677;SDS011;9469;51.114;13.914;2022-09-09T06:07:32;2.20;;;1.43;;
18677;SDS011;9469;51.114;13.914;2022-09-09T06:12:39;1.83;;;1.20;;
18677;SDS011;9469;51.114;13.914;2022-09-09T06:17:44;6.37;;;1.50;;
18677;SDS011;9469;51.114;13.914;2022-09-09T06:22:54;4.30;;;1.33;;
18677;SDS011;9469;51.114;13.914;2022-09-09T06:27:59;3.07;;;1.60;;
18677;SDS011;9469;51.114;13.914;2022-09-09T06:33:04;4.80;;;1.30;;
18677;SDS011;9469;51.114;13.914;2022-09-09T06:38:12;2.40;;;1.13;;
18677;SDS011;9469;51.114;13.914;2022-09-09T06:43:17;5.27;;;1.60;;
18677;SDS011;9469;51.114;13.914;2022-09-09T06:48:24;2.43;;;1.27;;
18677;SDS011;9469;51.114;13.914;2022-09-09T06:53:34;2.40;;;1.17;;
18677;SDS011;9469;51.114;13.914;2022-09-09T06:58:40;4.13;;;1.00;;
18677;SDS011;9469;51.114;13.914;2022-09-09T07:03:54;1.67;;;1.03;;
18677;SDS011;9469;51.114;13.914;2022-09-09T07:09:07;2.77;;;1.27;;
18677;SDS011;9469;51.114;13.914;2022-09-09T07:14:23;6.67;;;2.10;;
18677;SDS011;9469;51.114;13.914;2022-09-09T07:19:34;1.63;;;0.90;;
18677;SDS011;9469;51.114;13.914;2022-09-09T07:24:46;4.23;;;1.10;;
18677;SDS011;9469;51.114;13.914;2022-09-09T07:29:51;2.83;;;1.13;;
18677;SDS011;9469;51.114;13.914;2022-09-09T07:34:59;2.85;;;1.02;;
18677;SDS011;9469;51.114;13.914;2022-09-09T07:40:08;5.40;;;1.52;;
18677;SDS011;9469;51.114;13.914;2022-09-09T07:45:15;1.83;;;0.70;;
18677;SDS011;9469;51.114;13.914;2022-09-09T07:50:22;2.85;;;0.60;;
18677;SDS011;9469;51.114;13.914;2022-09-09T07:55:31;3.85;;;0.80;;
18677;SDS011;9469;51.114;13.914;2022-09-09T08:00:36;2.67;;;0.68;;
18677;SDS011;9469;51.114;13.914;2022-09-09T08:05:44;1.52;;;0.65;;
18677;SDS011;9469;51.114;13.914;2022-09-09T08:10:53;3.30;;;0.80;;
18677;SDS011;9469;51.114;13.914;2022-09-09T08:16:08;3.20;;;1.17;;
18677;SDS011;9469;51.114;13.914;2022-09-09T08:21:18;2.53;;;1.10;;
18677;SDS011;9469;51.114;13.914;2022-09-09T08:26:34;2.55;;;0.88;;
18677;SDS011;9469;51.114;13.914;2022-09-09T08:31:44;2.47;;;0.70;;
18677;SDS011;9469;51.114;13.914;2022-09-09T08:36:55;4.82;;;2.00;;
18677;SDS011;9469;51.114;13.914;2022-09-09T08:47:47;2.15;;;0.70;;
18677;SDS011;9469;51.114;13.914;2022-09-09T08:53:00;4.95;;;1.80;;
18677;SDS011;9469;51.114;13.914;2022-09-09T08:58:14;3.45;;;0.80;;
18677;SDS011;9469;51.114;13.914;2022-09-09T09:03:24;3.13;;;0.82;;
18677;SDS011;9469;51.114;13.914;2022-09-09T09:08:43;4.72;;;1.15;;
18677;SDS011;9469;51.114;13.914;2022-09-09T09:13:56;2.33;;;0.70;;
18677;SDS011;9469;51.114;13.914;2022-09-09T09:19:07;4.45;;;1.05;;
18677;SDS011;9469;51.114;13.914;2022-09-09T09:24:21;4.03;;;1.10;;
18677;SDS011;9469;51.114;13.914;2022-09-09T09:29:36;7.60;;;2.30;;
18677;SDS011;9469;51.114;13.914;2022-09-09T09:35:06;3.92;;;1.80;;
18677;SDS011;9469;51.114;13.914;2022-09-09T09:40:19;10.83;;;5.40;;
18677;SDS011;9469;51.114;13.914;2022-09-09T09:45:32;13.83;;;4.03;;
18677;SDS011;9469;51.114;13.914;2022-09-09T09:50:45;10.60;;;4.00;;
18677;SDS011;9469;51.114;13.914;2022-09-09T09:55:53;2.80;;;1.23;;
18677;SDS011;9469;51.114;13.914;2022-09-09T10:01:04;5.67;;;1.30;;
18677;SDS011;9469;51.114;13.914;2022-09-09T10:06:09;6.53;;;2.60;;
18677;SDS011;9469;51.114;13.914;2022-09-09T10:11:24;5.13;;;1.53;;
18677;SDS011;9469;51.114;13.914;2022-09-09T10:16:45;3.07;;;0.87;;
18677;SDS011;9469;51.114;13.914;2022-09-09T10:22:17;3.60;;;1.10;;
18677;SDS011;9469;51.114;13.914;2022-09-09T10:27:32;3.07;;;1.20;;
18677;SDS011;9469;51.114;13.914;2022-09-09T10:32:52;4.20;;;1.20;;
18677;SDS011;9469;51.114;13.914;2022-09-09T10:43:46;5.00;;;1.17;;
18677;SDS011;9469;51.114;13.914;2022-09-09T10:49:11;4.13;;;1.50;;
18677;SDS011;9469;51.114;13.914;2022-09-09T10:54:30;4.30;;;1.20;;
18677;SDS011;9469;51.114;13.914;2022-09-09T10:59:52;5.27;;;1.27;;
18677;SDS011;9469;51.114;13.914;2022-09-09T11:05:05;3.73;;;1.33;;
18677;SDS011;9469;51.114;13.914;2022-09-09T11:10:21;6.23;;;1.20;;
18677;SDS011;9469;51.114;13.914;2022-09-09T11:15:35;4.10;;;1.70;;
18677;SDS011;9469;51.114;13.914;2022-09-09T11:20:48;3.87;;;1.23;;
18677;SDS011;9469;51.114;13.914;2022-09-09T11:25:57;3.57;;;1.27;;
18677;SDS011;9469;51.114;13.914;2022-09-09T11:31:11;3.30;;;1.03;;
18677;SDS011;9469;51.114;13.914;2022-09-09T11:36:46;3.13;;;0.90;;
18677;SDS011;9469;51.114;13.914;2022-09-09T11:42:13;5.83;;;1.00;;
18677;SDS011;9469;51.114;13.914;2022-09-09T11:47:24;2.10;;;1.10;;
18677;SDS011;9469;51.114;13.914;2022-09-09T11:52:39;3.17;;;0.97;;
18677;SDS011;9469;51.114;13.914;2022-09-09T11:57:48;5.97;;;1.70;;
18677;SDS011;9469;51.114;13.914;2022-09-09T12:03:04;3.10;;;1.07;;
18677;SDS011;9469;51.114;13.914;2022-09-09T12:08:16;3.23;;;1.20;;
18677;SDS011;9469;51.114;13.914;2022-09-09T12:13:26;4.13;;;1.10;;
18677;SDS011;9469;51.114;13.914;2022-09-09T12:18:33;4.47;;;1.43;;
18677;SDS011;9469;51.114;13.914;2022-09-09T12:23:44;3.77;;;1.37;;
18677;SDS011;9469;51.114;13.914;2022-09-09T12:28:58;3.43;;;1.00;;
18677;SDS011;9469;51.114;13.914;2022-09-09T12:34:16;3.73;;;1.37;;
18677;SDS011;9469;51.114;13.914;2022-09-09T12:39:32;6.30;;;1.00;;
18677;SDS011;9469;51.114;13.914;2022-09-09T12:44:40;3.67;;;1.25;;
18677;SDS011;9469;51.114;13.914;2022-09-09T12:49:58;3.13;;;1.00;;
18677;SDS011;9469;51.114;13.914;2022-09-09T12:55:07;3.23;;;1.50;;
18677;SDS011;9469;51.114;13.914;2022-09-09T13:00:21;3.80;;;1.10;;
18677;SDS011;9469;51.114;13.914;2022-09-09T13:05:28;3.53;;;1.67;;
18677;SDS011;9469;51.114;13.914;2022-09-09T13:10:43;3.10;;;1.27;;
18677;SDS011;9469;51.114;13.914;2022-09-09T13:15:56;2.10;;;1.37;;
18677;SDS011;9469;51.114;13.914;2022-09-09T13:21:04;2.33;;;1.20;;
18677;SDS011;9469;51.114;13.914;2022-09-09T13:26:22;3.40;;;0.80;;
18677;SDS011;9469;51.114;13.914;2022-09-09T13:31:33;3.53;;;1.30;;
18677;SDS011;9469;51.114;13.914;2022-09-09T13:36:41;1.55;;;0.90;;
18677;SDS011;9469;51.114;13.914;2022-09-09T13:42:02;3.22;;;1.30;;
18677;SDS011;9469;51.114;13.914;2022-09-09T13:47:17;2.80;;;1.13;;
18677;SDS011;9469;51.114;13.914;2022-09-09T13:52:30;4.03;;;1.08;;
18677;SDS011;9469;51.114;13.914;2022-09-09T13:57:49;2.42;;;0.80;;
18677;SDS011;9469;51.114;13.914;2022-09-09T14:02:55;3.20;;;1.38;;
18677;SDS011;9469;51.114;13.914;2022-09-09T14:08:02;4.93;;;1.00;;
18677;SDS011;9469;51.114;13.914;2022-09-09T14:13:10;3.30;;;0.90;;
18677;SDS011;9469;51.114;13.914;2022-09-09T14:18:16;1.88;;;1.13;;
18677;SDS011;9469;51.114;13.914;2022-09-09T14:23:21;3.27;;;0.97;;
18677;SDS011;9469;51.114;13.914;2022-09-09T14:28:28;2.80;;;1.10;;
18677;SDS011;9469;51.114;13.914;2022-09-09T14:33:54;3.13;;;1.10;;
18677;SDS011;9469;51.114;13.914;2022-09-09T14:39:02;1.27;;;0.80;;
18677;SDS011;9469;51.114;13.914;2022-09-09T14:44:10;3.77;;;1.17;;
18677;SDS011;9469;51.114;13.914;2022-09-09T14:49:16;3.70;;;1.13;;
18677;SDS011;9469;51.114;13.914;2022-09-09T14:54:21;4.93;;;1.13;;
18677;SDS011;9469;51.114;13.914;2022-09-09T14:59:29;4.97;;;1.10;;
18677;SDS011;9469;51.114;13.914;2022-09-09T15:04:36;3.13;;;0.87;;
18677;SDS011;9469;51.114;13.914;2022-09-09T15:09:41;3.60;;;1.10;;
18677;SDS011;9469;51.114;13.914;2022-09-09T15:14:48;3.30;;;1.30;;
18677;SDS011;9469;51.114;13.914;2022-09-09T15:19:56;2.93;;;1.00;;
18677;SDS011;9469;51.114;13.914;2022-09-09T15:25:05;6.00;;;1.13;;
18677;SDS011;9469;51.114;13.914;2022-09-09T15:30:15;3.73;;;1.40;;
18677;SDS011;9469;51.114;13.914;2022-09-09T15:35:20;6.03;;;1.40;;
18677;SDS011;9469;51.114;13.914;2022-09-09T15:40:25;4.33;;;1.10;;
18677;SDS011;9469;51.114;13.914;2022-09-09T15:45:33;6.23;;;1.43;;
18677;SDS011;9469;51.114;13.914;2022-09-09T15:50:38;3.20;;;1.37;;
18677;SDS011;9469;51.114;13.914;2022-09-09T15:55:43;3.27;;;1.50;;
18677;SDS011;9469;51.114;13.914;2022-09-09T16:00:51;4.00;;;1.03;;
18677;SDS011;9469;51.114;13.914;2022-09-09T16:05:56;4.40;;;1.30;;
18677;SDS011;9469;51.114;13.914;2022-09-09T16:11:05;1.93;;;0.97;;
18677;SDS011;9469;51.114;13.914;2022-09-09T16:16:15;3.77;;;0.83;;
18677;SDS011;9469;51.114;13.914;2022-09-09T16:21:27;2.03;;;0.93;;
18677;SDS011;9469;51.114;13.914;2022-09-09T16:26:34;2.80;;;1.00;;
18677;SDS011;9469;51.114;13.914;2022-09-09T16:31:43;3.37;;;1.60;;
18677;SDS011;9469;51.114;13.914;2022-09-09T16:36:53;2.10;;;1.10;;
18677;SDS011;9469;51.114;13.914;2022-09-09T16:41:58;2.40;;;0.83;;
18677;SDS011;9469;51.114;13.914;2022-09-09T16:47:07;5.20;;;1.47;;
18677;SDS011;9469;51.114;13.914;2022-09-09T16:52:13;4.00;;;1.37;;
18677;SDS011;9469;51.114;13.914;2022-09-09T16:57:21;2.97;;;1.40;;
18677;SDS011;9469;51.114;13.914;2022-09-09T17:02:30;2.53;;;1.50;;
18677;SDS011;9469;51.114;13.914;2022-09-09T17:07:35;4.37;;;1.20;;
18677;SDS011;9469;51.114;13.914;2022-09-09T17:12:40;5.50;;;1.13;;
18677;SDS011;9469;51.114;13.914;2022-09-09T17:17:48;4.33;;;1.30;;
18677;SDS011;9469;51.114;13.914;2022-09-09T17:22:56;3.67;;;1.30;;
18677;SDS011;9469;51.114;13.914;2022-09-09T17:28:01;2.43;;;1.17;;
18677;SDS011;9469;51.114;13.914;2022-09-09T17:33:12;5.87;;;1.20;;
18677;SDS011;9469;51.114;13.914;2022-09-09T17:38:17;3.13;;;1.20;;
18677;SDS011;9469;51.114;13.914;2022-09-09T17:43:29;1.90;;;1.40;;
18677;SDS011;9469;51.114;13.914;2022-09-09T17:48:36;4.40;;;1.43;;
18677;SDS011;9469;51.114;13.914;2022-09-09T17:53:42;2.13;;;1.60;;
18677;SDS011;9469;51.114;13.914;2022-09-09T17:58:49;3.83;;;1.60;;
18677;SDS011;9469;51.114;13.914;2022-09-09T18:03:58;4.07;;;1.83;;
18677;SDS011;9469;51.114;13.914;2022-09-09T18:09:05;4.00;;;1.50;;
18677;SDS011;9469;51.114;13.914;2022-09-09T18:14:12;4.40;;;1.83;;
18677;SDS011;9469;51.114;13.914;2022-09-09T18:19:21;7.10;;;3.67;;
18677;SDS011;9469;51.114;13.914;2022-09-09T18:24:27;2.73;;;1.60;;
18677;SDS011;9469;51.114;13.914;2022-09-09T18:29:36;3.33;;;1.67;;
18677;SDS011;9469;51.114;13.914;2022-09-09T18:34:44;3.13;;;1.60;;
18677;SDS011;9469;51.114;13.914;2022-09-09T18:40:01;2.03;;;1.17;;
18677;SDS011;9469;51.114;13.914;2022-09-09T18:45:11;3.27;;;1.70;;
18677;SDS011;9469;51.114;13.914;2022-09-09T18:50:19;3.67;;;1.80;;
18677;SDS011;9469;51.114;13.914;2022-09-09T18:55:25;3.17;;;1.43;;
18677;SDS011;9469;51.114;13.914;2022-09-09T19:00:30;6.00;;;2.17;;
18677;SDS011;9469;51.114;13.914;2022-09-09T19:05:38;6.20;;;1.87;;
18677;SDS011;9469;51.114;13.914;2022-09-09T19:10:43;4.67;;;2.13;;
18677;SDS011;9469;51.114;13.914;2022-09-09T19:15:48;3.97;;;1.93;;
18677;SDS011;9469;51.114;13.914;2022-09-09T19:21:06;5.67;;;4.23;;
18677;SDS011;9469;51.114;13.914;2022-09-09T19:26:14;3.27;;;2.50;;
18677;SDS011;9469;51.114;13.914;2022-09-09T19:31:19;6.43;;;4.40;;
18677;SDS011;9469;51.114;13.914;2022-09-09T19:36:27;6.97;;;3.83;;
18677;SDS011;9469;51.114;13.914;2022-09-09T19:41:32;10.00;;;4.17;;
18677;SDS011;9469;51.114;13.914;2022-09-09T19:46:38;6.17;;;4.13;;
18677;SDS011;9469;51.114;13.914;2022-09-09T19:51:47;6.30;;;3.40;;
18677;SDS011;9469;51.114;13.914;2022-09-09T19:56:52;3.43;;;2.83;;
18677;SDS011;9469;51.114;13.914;2022-09-09T20:01:58;4.40;;;2.33;;
18677;SDS011;9469;51.114;13.914;2022-09-09T20:07:06;4.77;;;2.10;;
18677;SDS011;9469;51.114;13.914;2022-09-09T20:12:11;6.43;;;2.40;;
18677;SDS011;9469;51.114;13.914;2022-09-09T20:17:17;4.63;;;2.20;;
18677;SDS011;9469;51.114;13.914;2022-09-09T20:22:25;3.87;;;2.47;;
18677;SDS011;9469;51.114;13.914;2022-09-09T20:27:32;3.50;;;2.43;;
18677;SDS011;9469;51.114;13.914;2022-09-09T20:32:37;4.77;;;2.37;;
18677;SDS011;9469;51.114;13.914;2022-09-09T20:37:45;7.63;;;2.10;;
18677;SDS011;9469;51.114;13.914;2022-09-09T20:42:49;5.30;;;2.27;;
18677;SDS011;9469;51.114;13.914;2022-09-09T20:47:54;2.90;;;1.80;;
18677;SDS011;9469;51.114;13.914;2022-09-09T20:53:02;5.63;;;3.23;;
18677;SDS011;9469;51.114;13.914;2022-09-09T20:58:07;4.50;;;2.57;;
18677;SDS011;9469;51.114;13.914;2022-09-09T21:03:12;5.60;;;2.73;;
18677;SDS011;9469;51.114;13.914;2022-09-09T21:08:19;6.47;;;2.00;;
18677;SDS011;9469;51.114;13.914;2022-09-09T21:13:25;6.47;;;3.33;;
18677;SDS011;9469;51.114;13.914;2022-09-09T21:18:30;5.67;;;2.97;;
18677;SDS011;9469;51.114;13.914;2022-09-09T21:23:38;6.97;;;3.00;;
18677;SDS011;9469;51.114;13.914;2022-09-09T21:28:43;4.57;;;2.13;;
18677;SDS011;9469;51.114;13.914;2022-09-09T21:33:47;3.77;;;2.20;;
18677;SDS011;9469;51.114;13.914;2022-09-09T21:38:55;4.87;;;2.37;;
18677;SDS011;9469;51.114;13.914;2022-09-09T21:44:01;3.83;;;1.90;;
18677;SDS011;9469;51.114;13.914;2022-09-09T21:49:06;3.20;;;2.03;;
18677;SDS011;9469;51.114;13.914;2022-09-09T21:54:14;5.37;;;2.63;;
18677;SDS011;9469;51.114;13.914;2022-09-09T21:59:19;6.20;;;2.40;;
18677;SDS011;9469;51.114;13.914;2022-09-09T22:04:24;8.60;;;2.10;;
18677;SDS011;9469;51.114;13.914;2022-09-09T22:09:33;2.70;;;2.20;;
18677;SDS011;9469;51.114;13.914;2022-09-09T22:14:39;3.37;;;2.53;;
18677;SDS011;9469;51.114;13.914;2022-09-09T22:19:45;3.80;;;1.80;;
18677;SDS011;9469;51.114;13.914;2022-09-09T22:24:53;5.90;;;2.00;;
18677;SDS011;9469;51.114;13.914;2022-09-09T22:29:58;5.13;;;1.90;;
18677;SDS011;9469;51.114;13.914;2022-09-09T22:35:04;3.63;;;2.00;;
18677;SDS011;9469;51.114;13.914;2022-09-09T22:40:12;4.13;;;1.93;;
18677;SDS011;9469;51.114;13.914;2022-09-09T22:45:17;4.20;;;1.80;;
18677;SDS011;9469;51.114;13.914;2022-09-09T22:50:22;2.27;;;1.53;;
18677;SDS011;9469;51.114;13.914;2022-09-09T22:55:30;4.87;;;2.50;;
18677;SDS011;9469;51.114;13.914;2022-09-09T23:00:37;3.67;;;1.73;;
18677;SDS011;9469;51.114;13.914;2022-09-09T23:05:51;3.00;;;2.10;;
18677;SDS011;9469;51.114;13.914;2022-09-09T23:11:03;2.47;;;1.90;;
18677;SDS011;9469;51.114;13.914;2022-09-09T23:16:10;4.07;;;2.00;;
18677;SDS011;9469;51.114;13.914;2022-09-09T23:21:16;4.50;;;1.60;;
18677;SDS011;9469;51.114;13.914;2022-09-09T23:26:25;4.13;;;2.00;;
18677;SDS011;9469;51.114;13.914;2022-09-09T23:31:31;3.40;;;1.90;;
18677;SDS011;9469;51.114;13.914;2022-09-09T23:36:38;3.77;;;2.13;;
18677;SDS011;9469;51.114;13.914;2022-09-09T23:41:47;2.20;;;1.60;;
18677;SDS011;9469;51.114;13.914;2022-09-09T23:46:53;2.63;;;2.07;;
18677;SDS011;9469;51.114;13.914;2022-09-09T23:51:58;3.87;;;2.03;;
18677;SDS011;9469;51.114;13.914;2022-09-09T23:57:06;3.03;;;2.07;;
